createdAt,value
2018-03-22T00:01:20.668Z,3.60
2018-03-22T00:02:52.481Z,3.50
2018-03-22T00:04:24.297Z,3.40
2018-03-22T00:05:56.114Z,3.00
2018-03-22T00:07:27.930Z,3.30
2018-03-22T00:08:59.847Z,3.70
2018-03-22T00:10:31.562Z,4.60
2018-03-22T00:12:03.378Z,4.60
2018-03-22T00:13:35.199Z,5.00
2018-03-22T00:15:07.011Z,6.20
2018-03-22T00:16:38.828Z,5.50
2018-03-22T00:18:10.644Z,4.90
2018-03-22T00:19:42.461Z,4.80
2018-03-22T00:21:14.277Z,5.40
2018-03-22T00:22:46.094Z,5.60
2018-03-22T00:24:17.911Z,5.10
2018-03-22T00:25:49.728Z,5.50
2018-03-22T00:27:21.645Z,5.40
2018-03-22T00:28:53.360Z,6.90
2018-03-22T00:30:25.178Z,6.40
2018-03-22T00:31:56.992Z,6.30
2018-03-22T00:33:28.909Z,6.90
2018-03-22T00:35:00.629Z,7.10
2018-03-22T00:36:32.441Z,6.60
2018-03-22T00:38:04.257Z,6.20
2018-03-22T00:39:36.074Z,6.90
2018-03-22T00:41:07.988Z,5.80
2018-03-22T00:42:39.709Z,5.70
2018-03-22T00:44:11.524Z,6.40
2018-03-22T00:45:43.447Z,5.80
2018-03-22T00:47:15.157Z,5.80
2018-03-22T00:48:46.974Z,5.90
2018-03-22T00:50:18.790Z,6.00
2018-03-22T00:51:50.606Z,6.60
2018-03-22T00:53:22.422Z,7.00
2018-03-22T00:54:54.408Z,9.00
2018-03-22T00:56:26.317Z,11.30
2018-03-22T00:57:57.870Z,13.30
2018-03-22T00:59:29.953Z,10.90
2018-03-22T01:01:01.502Z,10.70
2018-03-22T01:02:33.318Z,7.80
2018-03-22T01:04:05.336Z,7.20
2018-03-22T01:05:36.949Z,7.40
2018-03-22T01:07:08.764Z,8.70
2018-03-22T01:08:40.580Z,5.80
2018-03-22T01:10:12.526Z,7.10
2018-03-22T01:11:44.229Z,7.00
2018-03-22T01:13:16.030Z,6.60
2018-03-22T01:14:47.842Z,6.90
2018-03-22T01:16:19.659Z,5.60
2018-03-22T01:17:51.473Z,2.50
2018-03-22T01:19:23.288Z,3.20
2018-03-22T01:20:55.104Z,3.50
2018-03-22T01:22:27.027Z,4.60
2018-03-22T01:23:58.734Z,4.90
2018-03-22T01:25:30.550Z,5.50
2018-03-22T01:27:02.365Z,4.30
2018-03-22T01:28:34.187Z,4.50
2018-03-22T01:30:05.996Z,4.40
2018-03-22T01:31:37.811Z,3.90
2018-03-22T01:33:09.627Z,4.90
2018-03-22T01:34:41.443Z,4.60
2018-03-22T01:36:13.259Z,4.80
2018-03-22T01:37:45.074Z,4.30
2018-03-22T01:39:16.895Z,4.10
2018-03-22T01:40:48.804Z,4.20
2018-03-22T01:42:20.520Z,3.50
2018-03-22T01:43:52.335Z,3.20
2018-03-22T01:45:24.150Z,3.20
2018-03-22T01:46:56.116Z,2.70
2018-03-22T01:48:27.784Z,2.90
2018-03-22T01:49:59.597Z,2.30
2018-03-22T01:51:31.413Z,2.50
2018-03-22T01:53:03.231Z,2.60
2018-03-22T01:54:35.070Z,2.80
2018-03-22T01:56:06.859Z,2.40
2018-03-22T01:57:38.676Z,2.70
2018-03-22T01:59:10.591Z,2.40
2018-03-22T02:00:42.306Z,2.30
2018-03-22T02:02:14.121Z,2.30
2018-03-22T02:03:45.937Z,2.70
2018-03-22T02:05:17.852Z,3.80
2018-03-22T02:06:49.577Z,3.00
2018-03-22T02:08:21.382Z,4.50
2018-03-22T02:09:53.197Z,3.50
2018-03-22T02:11:25.013Z,3.60
2018-03-22T02:12:56.828Z,5.20
2018-03-22T02:14:28.647Z,5.00
2018-03-22T02:16:00.459Z,6.00
2018-03-22T02:17:32.375Z,6.90
2018-03-22T02:19:04.090Z,6.70
2018-03-22T02:20:35.905Z,5.50
2018-03-22T02:22:07.721Z,4.90
2018-03-22T02:23:39.537Z,5.10
2018-03-22T02:25:11.351Z,4.20
2018-03-22T02:26:43.167Z,4.70
2018-03-22T02:28:14.982Z,5.00
2018-03-22T02:31:18.612Z,6.70
2018-03-22T02:32:50.428Z,6.60
2018-03-22T02:34:22.245Z,8.80
2018-03-22T02:35:54.058Z,9.40
2018-03-22T02:37:25.974Z,11.30
2018-03-22T02:38:57.697Z,10.70
2018-03-22T02:40:29.507Z,10.40
2018-03-22T02:42:01.320Z,11.20
2018-03-22T02:43:33.136Z,17.00
2018-03-22T02:45:04.951Z,12.30
2018-03-22T02:46:36.766Z,16.00
2018-03-22T02:48:08.582Z,16.80
2018-03-22T02:49:40.396Z,16.30
2018-03-22T02:51:12.272Z,16.30
2018-03-22T02:52:44.027Z,17.20
2018-03-22T02:54:15.847Z,22.90
2018-03-22T02:55:47.910Z,17.60
2018-03-22T02:57:19.489Z,16.50
2018-03-22T02:58:51.289Z,20.80
2018-03-22T03:00:23.104Z,21.70
2018-03-22T03:01:54.918Z,26.10
2018-03-22T03:03:26.733Z,24.90
2018-03-22T03:04:59.055Z,21.00
2018-03-22T03:06:30.365Z,21.50
2018-03-22T03:08:02.280Z,21.60
2018-03-22T03:09:33.995Z,20.80
2018-03-22T03:11:05.809Z,22.10
2018-03-22T03:12:37.625Z,22.70
2018-03-22T03:14:09.539Z,20.80
2018-03-22T03:15:41.255Z,19.60
2018-03-22T03:17:13.070Z,20.50
2018-03-22T03:18:44.886Z,21.60
2018-03-22T03:20:16.701Z,15.50
2018-03-22T03:23:20.331Z,19.40
2018-03-22T03:24:52.150Z,19.50
2018-03-22T03:26:23.962Z,13.30
2018-03-22T03:27:55.777Z,13.50
2018-03-22T03:29:27.592Z,13.00
2018-03-22T03:30:59.409Z,12.50
2018-03-22T03:32:31.322Z,13.40
2018-03-22T03:34:03.037Z,13.40
2018-03-22T03:35:34.853Z,11.70
2018-03-22T03:37:06.672Z,12.90
2018-03-22T03:38:38.585Z,13.10
2018-03-22T03:40:10.297Z,11.80
2018-03-22T03:41:42.113Z,13.90
2018-03-22T03:43:13.928Z,12.10
2018-03-22T03:44:45.744Z,12.70
2018-03-22T03:46:17.558Z,12.40
2018-03-22T03:47:49.374Z,12.10
2018-03-22T03:49:21.189Z,12.10
2018-03-22T03:50:53.107Z,13.00
2018-03-22T03:52:24.820Z,11.50
2018-03-22T03:53:56.634Z,15.10
2018-03-22T03:55:28.450Z,11.80
2018-03-22T03:57:00.466Z,13.30
2018-03-22T03:58:32.080Z,8.70
2018-03-22T04:00:03.894Z,9.90
2018-03-22T04:01:35.711Z,10.50
2018-03-22T04:03:07.524Z,12.70
2018-03-22T04:04:39.341Z,14.00
2018-03-22T04:06:11.155Z,14.70
2018-03-22T04:07:42.969Z,13.20
2018-03-22T04:09:14.986Z,14.10
2018-03-22T04:10:46.600Z,12.60
2018-03-22T04:12:18.416Z,13.30
2018-03-22T04:13:50.230Z,14.30
2018-03-22T04:15:22.247Z,15.00
2018-03-22T04:16:53.860Z,14.80
2018-03-22T04:18:25.680Z,15.10
2018-03-22T04:19:57.490Z,17.60
2018-03-22T04:21:29.455Z,14.90
2018-03-22T04:23:01.120Z,14.00
2018-03-22T04:24:32.935Z,19.00
2018-03-22T04:26:04.750Z,21.60
2018-03-22T04:27:36.666Z,18.90
2018-03-22T04:29:08.380Z,18.90
2018-03-22T04:30:40.196Z,18.50
2018-03-22T04:32:12.011Z,21.80
2018-03-22T04:33:43.831Z,19.60
2018-03-22T04:35:15.642Z,17.80
2018-03-22T04:36:47.456Z,19.90
2018-03-22T04:38:19.274Z,22.30
2018-03-22T04:39:51.188Z,22.40
2018-03-22T04:41:22.905Z,23.10
2018-03-22T04:42:54.722Z,25.10
2018-03-22T04:44:26.533Z,23.10
2018-03-22T04:45:58.447Z,25.80
2018-03-22T04:47:30.162Z,24.10
2018-03-22T04:49:01.978Z,26.00
2018-03-22T04:50:33.793Z,24.40
2018-03-22T04:52:05.607Z,25.60
2018-03-22T04:53:37.422Z,28.20
2018-03-22T04:55:09.240Z,24.60
2018-03-22T04:56:41.053Z,27.10
2018-03-22T04:58:12.869Z,27.80
2018-03-22T04:59:44.684Z,28.80
2018-03-22T05:01:16.498Z,25.70
2018-03-22T05:02:48.313Z,28.30
2018-03-22T05:04:20.228Z,28.40
2018-03-22T05:05:51.946Z,27.40
2018-03-22T05:07:23.759Z,28.60
2018-03-22T05:08:55.575Z,28.00
2018-03-22T05:10:27.490Z,22.90
2018-03-22T05:11:59.205Z,29.40
2018-03-22T05:13:31.021Z,26.40
2018-03-22T05:15:02.835Z,28.50
2018-03-22T05:16:34.652Z,27.40
2018-03-22T05:18:06.467Z,27.50
2018-03-22T05:19:38.282Z,27.10
2018-03-22T05:21:10.098Z,26.50
2018-03-22T05:22:42.217Z,24.20
2018-03-22T05:24:13.729Z,25.90
2018-03-22T05:25:45.850Z,26.30
2018-03-22T05:27:17.360Z,22.50
2018-03-22T05:28:49.175Z,23.00
2018-03-22T05:30:20.991Z,24.40
2018-03-22T05:31:52.810Z,22.60
2018-03-22T05:33:24.622Z,19.70
2018-03-22T05:34:56.437Z,17.40
2018-03-22T05:36:28.253Z,14.60
2018-03-22T05:38:00.070Z,14.40
2018-03-22T05:39:31.884Z,10.20
2018-03-22T05:41:03.900Z,10.60
2018-03-22T05:42:35.516Z,11.60
2018-03-22T05:44:07.332Z,7.90
2018-03-22T05:45:39.148Z,5.40
2018-03-22T05:47:10.964Z,5.80
2018-03-22T05:48:42.778Z,3.70
2018-03-22T05:50:14.599Z,3.50
2018-03-22T05:53:18.230Z,4.20
2018-03-22T05:54:50.041Z,4.10
2018-03-22T05:56:21.865Z,5.80
2018-03-22T05:57:53.672Z,4.70
2018-03-22T05:59:25.588Z,4.60
2018-03-22T06:00:57.303Z,5.40
2018-03-22T06:02:29.119Z,6.00
2018-03-22T06:04:00.937Z,5.20
2018-03-22T06:05:32.751Z,6.80
2018-03-22T06:07:04.569Z,6.30
2018-03-22T06:08:36.381Z,6.10
2018-03-22T06:10:08.198Z,7.10
2018-03-22T06:11:40.112Z,9.00
2018-03-22T06:13:11.827Z,7.60
2018-03-22T06:14:43.645Z,6.90
2018-03-22T06:16:15.459Z,7.10
2018-03-22T06:17:47.374Z,7.00
2018-03-22T06:19:19.089Z,7.40
2018-03-22T06:20:50.905Z,7.40
2018-03-22T06:22:22.720Z,8.50
2018-03-22T06:23:54.685Z,7.50
2018-03-22T06:25:26.350Z,10.80
2018-03-22T06:26:58.164Z,7.40
2018-03-22T06:28:29.980Z,8.20
2018-03-22T06:30:01.822Z,8.10
2018-03-22T06:31:33.610Z,7.50
2018-03-22T06:33:05.431Z,4.60
2018-03-22T06:34:37.240Z,5.80
2018-03-22T06:36:09.155Z,3.90
2018-03-22T06:37:40.870Z,3.80
2018-03-22T06:39:12.685Z,5.00
2018-03-22T06:40:44.502Z,4.60
2018-03-22T06:42:16.565Z,7.70
2018-03-22T06:43:48.129Z,6.10
2018-03-22T06:45:19.944Z,5.90
2018-03-22T06:46:51.760Z,7.90
2018-03-22T06:48:23.574Z,7.50
2018-03-22T06:49:55.391Z,6.40
2018-03-22T06:51:27.204Z,7.90
2018-03-22T06:52:59.221Z,8.20
2018-03-22T06:54:31.084Z,9.80
2018-03-22T06:56:02.650Z,9.20
2018-03-22T06:57:34.482Z,10.80
2018-03-22T06:59:06.278Z,9.40
2018-03-22T07:00:38.249Z,11.60
2018-03-22T07:02:09.908Z,11.90
2018-03-22T07:03:41.722Z,11.90
2018-03-22T07:05:13.539Z,12.50
2018-03-22T07:06:45.452Z,17.00
2018-03-22T07:08:17.167Z,17.70
2018-03-22T07:09:48.982Z,17.60
2018-03-22T07:11:20.797Z,15.20
2018-03-22T07:12:52.962Z,18.30
2018-03-22T07:14:24.427Z,17.20
2018-03-22T07:15:56.242Z,16.70
2018-03-22T07:17:28.057Z,16.60
2018-03-22T07:19:00.276Z,14.60
2018-03-22T07:20:31.687Z,13.70
2018-03-22T07:22:03.501Z,12.50
2018-03-22T07:23:35.316Z,13.80
2018-03-22T07:25:07.281Z,13.80
2018-03-22T07:26:38.947Z,14.00
2018-03-22T07:28:10.761Z,9.60
2018-03-22T07:29:42.576Z,8.70
2018-03-22T07:31:14.491Z,10.10
2018-03-22T07:32:46.205Z,11.00
2018-03-22T07:34:18.020Z,9.00
2018-03-22T07:35:49.835Z,10.40
2018-03-22T07:37:21.649Z,9.80
2018-03-22T07:38:53.465Z,12.90
2018-03-22T07:40:25.279Z,12.10
2018-03-22T07:41:57.093Z,9.20
2018-03-22T07:43:29.010Z,11.30
2018-03-22T07:45:00.727Z,9.00
2018-03-22T07:46:32.538Z,8.10
2018-03-22T07:48:04.352Z,10.50
2018-03-22T07:49:36.267Z,10.40
2018-03-22T07:51:07.987Z,11.30
2018-03-22T07:52:39.837Z,8.80
2018-03-22T07:54:11.612Z,11.00
2018-03-22T07:55:43.428Z,10.70
2018-03-22T07:57:15.244Z,8.90
2018-03-22T07:58:47.058Z,7.90
2018-03-22T08:00:18.873Z,10.10
2018-03-22T08:01:50.689Z,9.50
2018-03-22T08:03:22.505Z,8.30
2018-03-22T08:04:54.318Z,7.30
2018-03-22T08:06:26.133Z,9.50
2018-03-22T08:07:58.052Z,12.20
2018-03-22T08:09:29.768Z,10.00
2018-03-22T08:11:01.579Z,8.90
2018-03-22T08:12:33.395Z,12.40
2018-03-22T08:14:05.310Z,12.40
2018-03-22T08:15:37.025Z,12.70
2018-03-22T08:17:08.841Z,13.50
2018-03-22T08:18:40.656Z,16.20
2018-03-22T08:20:12.472Z,12.60
2018-03-22T08:21:44.288Z,16.90
2018-03-22T08:23:16.103Z,15.50
2018-03-22T08:24:47.918Z,19.30
2018-03-22T08:26:19.880Z,20.00
2018-03-22T08:27:51.549Z,21.40
2018-03-22T08:29:23.364Z,21.80
2018-03-22T08:30:55.179Z,19.20
2018-03-22T08:32:27.144Z,27.70
2018-03-22T08:33:58.809Z,33.80
2018-03-22T08:35:30.624Z,30.80
2018-03-22T08:37:02.440Z,37.00
2018-03-22T08:38:34.255Z,41.20
2018-03-22T08:40:06.070Z,38.60
2018-03-22T08:41:37.885Z,45.80
2018-03-22T08:43:09.701Z,46.70
2018-03-22T08:44:42.317Z,42.90
2018-03-22T08:46:13.330Z,49.90
2018-03-22T08:47:45.147Z,46.50
2018-03-22T08:49:16.964Z,50.60
2018-03-22T08:50:48.777Z,56.40
2018-03-22T08:52:20.592Z,53.30
2018-03-22T08:53:52.407Z,51.60
2018-03-22T08:55:24.222Z,48.60
2018-03-22T08:56:56.187Z,49.30
2018-03-22T08:58:27.854Z,53.60
2018-03-22T08:59:59.667Z,56.10
2018-03-22T09:01:31.482Z,50.70
2018-03-22T09:03:03.396Z,56.70
2018-03-22T09:04:35.112Z,61.40
2018-03-22T09:06:06.927Z,55.10
2018-03-22T09:07:38.742Z,50.20
2018-03-22T09:09:10.557Z,60.50
2018-03-22T09:10:42.374Z,58.70
2018-03-22T09:12:14.186Z,51.00
2018-03-22T09:13:46.205Z,55.20
2018-03-22T09:15:17.922Z,53.60
2018-03-22T09:16:49.634Z,52.00
2018-03-22T09:18:21.446Z,59.40
2018-03-22T09:19:53.261Z,60.30
2018-03-22T09:21:25.179Z,60.80
2018-03-22T09:22:56.894Z,61.50
2018-03-22T09:24:28.706Z,58.00
2018-03-22T09:26:00.520Z,60.60
2018-03-22T09:27:32.335Z,62.20
2018-03-22T09:29:04.150Z,57.50
2018-03-22T09:30:35.970Z,62.90
2018-03-22T09:32:07.780Z,73.70
2018-03-22T09:33:39.595Z,69.50
2018-03-22T09:35:11.409Z,83.90
2018-03-22T09:36:43.224Z,72.10
2018-03-22T09:38:15.038Z,82.70
2018-03-22T09:39:46.953Z,88.80
2018-03-22T09:41:18.668Z,88.40
2018-03-22T09:42:50.483Z,94.70
2018-03-22T09:44:22.299Z,92.80
2018-03-22T09:45:54.364Z,95.30
2018-03-22T09:47:25.929Z,92.30
2018-03-22T09:48:57.744Z,111.70
2018-03-22T09:50:29.559Z,105.70
2018-03-22T09:52:01.375Z,92.70
2018-03-22T09:53:33.190Z,92.60
2018-03-22T09:55:05.005Z,79.60
2018-03-22T09:56:36.824Z,82.40
2018-03-22T09:58:08.990Z,82.00
2018-03-22T09:59:40.452Z,86.50
2018-03-22T10:01:12.267Z,70.00
2018-03-22T10:02:44.084Z,78.40
2018-03-22T10:04:15.898Z,62.20
2018-03-22T10:05:47.719Z,60.40
2018-03-22T10:07:19.531Z,62.60
2018-03-22T10:08:51.345Z,46.60
2018-03-22T10:10:23.162Z,50.50
2018-03-22T10:11:54.978Z,48.20
2018-03-22T10:13:26.796Z,52.10
2018-03-22T10:14:58.618Z,58.40
2018-03-22T10:16:30.628Z,53.10
2018-03-22T10:18:02.243Z,48.30
2018-03-22T10:19:34.059Z,46.00
2018-03-22T10:21:06.257Z,47.00
2018-03-22T10:22:37.692Z,44.60
2018-03-22T10:24:09.538Z,47.70
2018-03-22T10:25:41.326Z,36.20
2018-03-22T10:27:13.141Z,33.90
2018-03-22T10:28:45.107Z,32.20
2018-03-22T10:30:16.772Z,30.40
2018-03-22T10:31:49.499Z,27.10
2018-03-22T10:33:20.405Z,27.40
2018-03-22T10:34:52.338Z,14.40
2018-03-22T10:36:24.037Z,14.70
2018-03-22T10:37:55.853Z,16.40
2018-03-22T10:39:27.673Z,14.70
2018-03-22T10:40:59.485Z,11.40
2018-03-22T10:42:31.302Z,8.70
2018-03-22T10:44:03.645Z,13.00
2018-03-22T10:45:34.936Z,12.20
2018-03-22T10:47:07.053Z,10.60
2018-03-22T10:48:38.564Z,10.20
2018-03-22T10:50:10.379Z,10.40
2018-03-22T10:51:42.200Z,9.80
2018-03-22T10:53:14.117Z,11.40
2018-03-22T10:54:45.833Z,8.80
2018-03-22T10:56:17.649Z,9.40
2018-03-22T10:57:49.989Z,7.70
2018-03-22T10:59:21.640Z,9.70
2018-03-22T11:00:53.092Z,7.60
2018-03-22T11:02:24.908Z,9.00
2018-03-22T11:03:56.725Z,8.00
2018-03-22T11:05:28.625Z,8.30
2018-03-22T11:08:32.228Z,10.00
2018-03-22T11:10:03.995Z,8.70
2018-03-22T11:11:35.908Z,8.10
2018-03-22T11:13:07.626Z,8.10
2018-03-22T11:14:39.441Z,7.50
2018-03-22T11:16:11.258Z,8.10
2018-03-22T11:17:44.132Z,8.60
2018-03-22T11:19:14.893Z,8.80
2018-03-22T11:20:46.707Z,7.30
2018-03-22T11:22:18.524Z,7.30
2018-03-22T11:23:50.341Z,6.30
2018-03-22T11:25:22.158Z,6.40
2018-03-22T11:26:53.977Z,6.60
2018-03-22T11:28:25.791Z,5.70
2018-03-22T11:29:57.711Z,6.70
2018-03-22T11:34:33.058Z,7.40
2018-03-22T11:36:04.975Z,7.70
2018-03-22T11:37:36.693Z,7.00
2018-03-22T11:39:08.718Z,6.50
2018-03-22T11:40:40.328Z,7.10
2018-03-22T11:42:12.146Z,6.90
2018-03-22T11:43:43.964Z,6.90
2018-03-22T11:45:15.782Z,7.30
2018-03-22T11:46:47.598Z,6.60
2018-03-22T11:48:19.523Z,5.80
2018-03-22T11:49:51.236Z,5.90
2018-03-22T11:51:23.102Z,6.30
2018-03-22T11:52:54.873Z,6.10
2018-03-22T11:54:26.895Z,5.20
2018-03-22T11:55:58.517Z,5.60
2018-03-22T11:57:30.334Z,5.50
2018-03-22T11:59:02.155Z,5.90
2018-03-22T12:00:33.971Z,5.60
2018-03-22T12:02:05.858Z,4.80
2018-03-22T12:03:37.626Z,6.10
2018-03-22T12:06:41.555Z,6.00
2018-03-22T12:08:13.071Z,6.00
2018-03-22T12:09:44.887Z,6.10
2018-03-22T12:11:17.625Z,6.20
2018-03-22T12:12:48.524Z,6.40
2018-03-22T12:14:20.354Z,6.20
2018-03-22T12:15:52.162Z,6.50
2018-03-22T12:17:23.985Z,6.60
2018-03-22T12:18:55.901Z,6.20
2018-03-22T12:20:27.928Z,7.10
2018-03-22T12:22:00.452Z,7.70
2018-03-22T12:23:32.394Z,6.10
2018-03-22T12:25:03.177Z,6.40
2018-03-22T12:26:34.896Z,6.80
2018-03-22T12:28:06.712Z,7.20
2018-03-22T12:29:38.530Z,5.90
2018-03-22T12:32:42.168Z,8.90
2018-03-22T12:34:13.986Z,7.90
2018-03-22T12:37:17.660Z,6.20
2018-03-22T12:38:49.440Z,8.20
2018-03-22T12:40:21.259Z,7.40
2018-03-22T12:41:53.117Z,8.50
2018-03-22T12:43:24.939Z,8.20
2018-03-22T12:44:56.877Z,11.50
2018-03-22T12:46:28.602Z,8.70
2018-03-22T12:49:32.784Z,8.60
2018-03-22T12:51:04.303Z,7.40
2018-03-22T12:52:36.150Z,7.60
2018-03-22T12:54:07.987Z,9.80
2018-03-22T12:55:39.743Z,8.70
2018-03-22T12:57:11.669Z,7.20
2018-03-22T12:58:43.529Z,7.50
2018-03-22T13:00:15.198Z,7.00
2018-03-22T13:01:47.368Z,7.20
2018-03-22T13:03:19.075Z,6.30
2018-03-22T13:04:50.775Z,6.50
2018-03-22T13:06:22.838Z,6.00
2018-03-22T13:07:54.978Z,4.70
2018-03-22T13:09:26.532Z,5.00
2018-03-22T13:10:58.704Z,4.80
2018-03-22T13:12:29.841Z,4.80
2018-03-22T13:14:02.041Z,4.60
2018-03-22T13:15:33.284Z,5.00
2018-03-22T13:17:05.357Z,5.00
2018-03-22T13:18:37.482Z,5.10
2018-03-22T13:20:09.278Z,5.20
2018-03-22T13:21:41.044Z,6.20
2018-03-22T13:23:12.689Z,5.50
2018-03-22T13:24:44.832Z,5.70
2018-03-22T13:26:16.689Z,5.90
2018-03-22T13:27:48.125Z,6.60
2018-03-22T13:29:19.909Z,6.90
2018-03-22T13:30:51.559Z,6.90
2018-03-22T13:32:23.626Z,6.30
2018-03-22T13:33:55.738Z,6.60
2018-03-22T13:35:27.395Z,6.50
2018-03-22T13:36:59.300Z,6.40
2018-03-22T13:38:31.018Z,6.80
2018-03-22T13:40:03.598Z,6.20
2018-03-22T13:41:34.581Z,5.30
2018-03-22T13:43:06.935Z,4.80
2018-03-22T13:44:38.296Z,4.10
2018-03-22T13:46:10.012Z,5.30
2018-03-22T13:47:42.078Z,5.50
2018-03-22T13:49:13.734Z,4.30
2018-03-22T13:50:46.129Z,4.20
2018-03-22T13:52:17.801Z,4.30
2018-03-22T13:53:49.159Z,4.30
2018-03-22T13:55:21.216Z,4.10
2018-03-22T13:56:53.412Z,4.30
2018-03-22T13:58:25.083Z,3.50
2018-03-22T13:59:57.318Z,3.00
2018-03-22T14:01:28.098Z,3.10
2018-03-22T14:03:02.665Z,3.30
2018-03-22T14:04:33.247Z,3.80
2018-03-22T14:06:04.253Z,5.90
2018-03-22T14:07:36.181Z,4.10
2018-03-22T14:09:07.279Z,4.00
2018-03-22T14:10:39.102Z,4.50
2018-03-22T14:12:10.753Z,5.40
2018-03-22T14:13:43.112Z,4.30
2018-03-22T14:15:14.509Z,4.40
2018-03-22T14:16:46.305Z,4.30
2018-03-22T14:18:18.148Z,4.90
2018-03-22T14:19:50.090Z,5.30
2018-03-22T14:21:21.571Z,5.50
2018-03-22T14:22:53.913Z,5.30
2018-03-22T14:24:26.516Z,5.30
2018-03-22T14:25:57.541Z,6.00
2018-03-22T14:27:28.828Z,6.10
2018-03-22T14:30:32.550Z,5.40
2018-03-22T14:32:04.679Z,5.50
2018-03-22T14:33:36.495Z,5.30
2018-03-22T14:35:08.594Z,5.90
2018-03-22T14:36:40.247Z,6.00
2018-03-22T14:38:11.740Z,4.30
2018-03-22T14:41:15.554Z,3.30
2018-03-22T14:42:47.215Z,4.40
2018-03-22T14:44:19.071Z,4.10
2018-03-22T14:47:22.566Z,4.20
2018-03-22T14:48:54.289Z,5.30
2018-03-22T14:50:27.035Z,5.40
2018-03-22T14:51:57.931Z,5.00
2018-03-22T14:53:29.752Z,4.40
2018-03-22T14:55:02.830Z,5.30
2018-03-22T14:56:33.794Z,5.60
2018-03-22T14:58:05.230Z,5.00
2018-03-22T14:59:37.319Z,5.90
2018-03-22T15:01:09.596Z,5.60
2018-03-22T15:02:41.947Z,6.10
2018-03-22T15:04:12.954Z,6.30
2018-03-22T15:05:44.499Z,5.80
2018-03-22T15:07:16.270Z,5.20
2018-03-22T15:08:48.005Z,5.90
2018-03-22T15:10:20.309Z,5.70
2018-03-22T15:11:51.665Z,6.00
2018-03-22T15:13:23.897Z,5.80
2018-03-22T15:14:55.275Z,5.40
2018-03-22T15:16:27.183Z,12.80
2018-03-22T15:17:59.125Z,4.80
2018-03-22T15:19:30.749Z,4.50
2018-03-22T15:21:02.776Z,4.50
2018-03-22T15:22:34.396Z,4.10
2018-03-22T15:24:06.223Z,4.00
2018-03-22T15:25:38.114Z,4.30
2018-03-22T15:27:09.868Z,4.30
2018-03-22T15:30:14.448Z,4.60
2018-03-22T15:31:45.440Z,4.70
2018-03-22T15:33:17.176Z,4.90
2018-03-22T15:34:49.732Z,5.10
2018-03-22T15:36:20.811Z,4.90
2018-03-22T15:40:56.665Z,4.90
2018-03-22T15:42:28.251Z,5.80
2018-03-22T15:44:00.129Z,5.90
2018-03-22T15:45:31.749Z,5.10
2018-03-22T15:47:03.766Z,5.20
2018-03-22T15:48:35.420Z,6.00
2018-03-22T15:50:07.374Z,5.70
2018-03-22T15:51:39.185Z,5.10
2018-03-22T15:53:11.228Z,5.00
2018-03-22T15:54:42.728Z,5.10
2018-03-22T15:56:14.545Z,5.70
2018-03-22T15:59:18.288Z,6.00
2018-03-22T16:00:50.359Z,6.60
2018-03-22T16:02:22.092Z,5.40
2018-03-22T16:03:53.790Z,5.90
2018-03-22T16:06:57.464Z,6.30
2018-03-22T16:08:29.460Z,5.90
2018-03-22T16:11:32.910Z,5.50
2018-03-22T16:13:04.717Z,6.00
2018-03-22T16:14:36.448Z,5.80
2018-03-22T16:17:40.880Z,5.40
2018-03-22T16:19:12.071Z,5.60
2018-03-22T16:20:44.125Z,5.90
2018-03-22T16:22:16.674Z,5.30
2018-03-22T16:23:47.519Z,7.30
2018-03-22T16:25:20.190Z,5.40
2018-03-22T16:26:51.016Z,5.80
2018-03-22T16:28:23.493Z,5.90
2018-03-22T16:29:55.402Z,5.50
2018-03-22T16:32:58.611Z,6.30
2018-03-22T16:34:31.015Z,6.10
2018-03-22T16:36:02.278Z,6.00
2018-03-22T16:37:33.874Z,7.50
2018-03-22T16:39:06.401Z,5.90
2018-03-22T16:40:37.986Z,5.50
2018-03-22T16:42:09.852Z,6.50
2018-03-22T16:43:41.492Z,7.80
2018-03-22T16:45:13.545Z,7.00
2018-03-22T16:46:45.148Z,7.10
2018-03-22T16:48:16.560Z,7.60
2018-03-22T16:49:49.131Z,7.30
2018-03-22T16:51:20.445Z,7.70
2018-03-22T16:52:52.367Z,7.80
2018-03-22T16:54:24.004Z,8.30
2018-03-22T16:55:56.281Z,8.80
2018-03-22T16:57:28.000Z,9.00
2018-03-22T16:58:59.973Z,9.70
2018-03-22T17:00:31.470Z,8.70
2018-03-22T17:03:36.078Z,9.40
2018-03-22T17:05:07.343Z,10.50
2018-03-22T17:06:38.511Z,11.00
2018-03-22T17:08:10.654Z,11.10
2018-03-22T17:09:42.123Z,10.10
2018-03-22T17:11:14.252Z,11.00
2018-03-22T17:12:45.783Z,11.00
2018-03-22T17:14:19.012Z,10.40
2018-03-22T17:15:49.797Z,11.50
2018-03-22T17:17:22.205Z,11.20
2018-03-22T17:18:53.621Z,10.30
2018-03-22T17:20:26.962Z,9.10
2018-03-22T17:21:58.847Z,9.90
2018-03-22T17:23:29.218Z,8.80
2018-03-22T17:28:04.993Z,9.00
2018-03-22T17:29:36.486Z,9.00
2018-03-22T17:31:07.711Z,8.00
2018-03-22T17:32:39.520Z,8.60
2018-03-22T17:35:43.216Z,9.10
2018-03-22T17:37:15.503Z,10.40
2018-03-22T17:38:47.354Z,10.70
2018-03-22T17:40:18.674Z,10.90
2018-03-22T17:41:51.169Z,10.30
2018-03-22T17:43:22.756Z,10.00
2018-03-22T17:44:54.721Z,10.70
2018-03-22T17:46:26.259Z,11.40
2018-03-22T17:49:29.607Z,11.30
2018-03-22T17:52:33.303Z,10.80
2018-03-22T17:55:36.955Z,10.60
2018-03-22T17:57:08.835Z,11.00
2018-03-22T17:58:40.570Z,11.80
2018-03-22T18:00:12.586Z,10.50
2018-03-22T18:01:44.902Z,11.00
2018-03-22T18:03:16.707Z,12.00
2018-03-22T18:04:48.246Z,11.20
2018-03-22T18:06:21.149Z,11.40
2018-03-22T18:07:52.203Z,11.70
2018-03-22T18:09:23.988Z,12.70
2018-03-22T18:10:55.469Z,12.20
2018-03-22T18:12:27.658Z,12.70
2018-03-22T18:13:59.350Z,13.00
2018-03-22T18:15:30.993Z,11.50
2018-03-22T18:17:03.172Z,11.50
2018-03-22T18:18:34.760Z,13.30
2018-03-22T18:20:06.209Z,12.70
2018-03-22T18:21:38.269Z,14.00
2018-03-22T18:23:10.210Z,15.80
2018-03-22T18:24:42.236Z,16.90
2018-03-22T18:26:13.901Z,18.50
2018-03-22T18:27:45.534Z,18.20
2018-03-22T18:29:17.789Z,21.20
2018-03-22T18:30:49.643Z,22.60
2018-03-22T18:32:22.578Z,22.80
2018-03-22T18:33:55.818Z,23.20
2018-03-22T18:35:25.400Z,22.40
2018-03-22T18:36:57.431Z,22.80
2018-03-22T18:38:28.654Z,23.00
2018-03-22T18:39:59.813Z,18.30
2018-03-22T18:41:31.853Z,18.30
2018-03-22T18:43:03.689Z,19.30
2018-03-22T18:44:35.558Z,17.10
2018-03-22T18:46:07.077Z,18.00
2018-03-22T18:47:38.895Z,17.00
2018-03-22T18:49:10.717Z,14.70
2018-03-22T18:50:42.584Z,15.80
2018-03-22T18:52:14.356Z,14.00
2018-03-22T18:53:46.174Z,15.10
2018-03-22T18:56:50.125Z,14.40
2018-03-22T18:58:21.937Z,11.60
2018-03-22T18:59:53.454Z,10.90
2018-03-22T19:01:25.276Z,9.70
2018-03-22T19:02:57.145Z,8.70
2018-03-22T19:04:28.921Z,10.70
2018-03-22T19:06:00.738Z,6.30
2018-03-22T19:07:33.990Z,6.70
2018-03-22T19:09:04.372Z,4.80
2018-03-22T19:10:36.497Z,5.20
2018-03-22T19:12:08.272Z,5.00
2018-03-22T19:13:39.834Z,5.00
2018-03-22T19:16:43.878Z,5.30
2018-03-22T19:18:15.301Z,6.20
2018-03-22T19:21:18.934Z,6.00
2018-03-22T19:22:50.756Z,7.20
2018-03-22T19:24:22.581Z,8.20
2018-03-22T19:25:54.391Z,7.90
2018-03-22T19:28:58.035Z,9.40
2018-03-22T19:32:01.715Z,10.70
2018-03-22T19:33:33.493Z,11.60
2018-03-22T19:35:05.720Z,11.30
2018-03-22T19:36:37.127Z,10.80
2018-03-22T19:38:08.950Z,12.00
2018-03-22T19:39:40.775Z,12.70
2018-03-22T19:41:12.586Z,13.40
2018-03-22T19:42:44.409Z,15.10
2018-03-22T19:44:16.227Z,14.10
2018-03-22T19:45:48.049Z,16.00
2018-03-22T19:48:51.681Z,15.20
2018-03-22T19:50:23.499Z,14.00
2018-03-22T19:51:55.320Z,12.10
2018-03-22T19:53:27.135Z,12.40
2018-03-22T19:54:59.357Z,11.50
2018-03-22T19:56:30.771Z,11.70
2018-03-22T19:58:02.689Z,10.70
2018-03-22T19:59:34.410Z,9.90
2018-03-22T20:01:06.224Z,9.60
2018-03-22T20:02:38.041Z,7.70
2018-03-22T20:04:09.860Z,8.50
2018-03-22T20:05:41.695Z,8.80
2018-03-22T20:07:13.627Z,8.50
2018-03-22T20:08:45.312Z,8.40
2018-03-22T20:10:17.128Z,16.50
2018-03-22T20:11:49.128Z,11.10
2018-03-22T20:13:20.861Z,11.20
2018-03-22T20:14:52.578Z,13.20
2018-03-22T20:16:24.515Z,11.20
2018-03-22T20:17:56.342Z,11.00
2018-03-22T20:19:28.029Z,10.10
2018-03-22T20:22:31.716Z,10.10
2018-03-22T20:24:03.481Z,9.20
2018-03-22T20:25:35.306Z,8.00
2018-03-22T20:27:07.114Z,10.30
2018-03-22T20:28:38.931Z,8.90
2018-03-22T20:30:10.747Z,9.90
2018-03-22T20:31:42.964Z,8.80
2018-03-22T20:33:14.381Z,10.40
2018-03-22T20:34:46.197Z,10.00
2018-03-22T20:36:18.013Z,9.80
2018-03-22T20:37:49.832Z,11.10
2018-03-22T20:39:21.651Z,9.20
2018-03-22T20:40:53.462Z,10.70
2018-03-22T20:42:25.278Z,11.60
2018-03-22T20:43:57.094Z,11.30
2018-03-22T20:45:28.912Z,10.70
2018-03-22T20:47:00.727Z,10.00
2018-03-22T20:48:32.544Z,6.60
2018-03-22T20:50:04.460Z,6.70
2018-03-22T20:51:36.176Z,5.20
2018-03-22T20:53:07.992Z,6.20
2018-03-22T20:54:39.813Z,6.60
2018-03-22T20:56:11.623Z,6.70
2018-03-22T20:57:43.445Z,7.30